sensor_id;sensor_type;location;lat;lon;timestamp;pressure;altitude;pressure_sealevel;temperature;humidity
9764;BME280;4921;43.214;27.936;2023-01-15T00:02:08;101829.97;;;6.34;100.00
9764;BME280;4921;43.214;27.936;2023-01-15T00:04:37;101817.94;;;6.50;100.00
9764;BME280;4921;43.214;27.936;2023-01-15T00:07:04;101826.06;;;6.62;100.00
9764;BME280;4921;43.214;27.936;2023-01-15T00:09:31;101817.44;;;6.60;100.00
9764;BME280;4921;43.214;27.936;2023-01-15T00:11:58;101815.38;;;6.48;100.00
9764;BME280;4921;43.214;27.936;2023-01-15T00:14:26;101820.72;;;6.45;100.00
9764;BME280;4921;43.214;27.936;2023-01-15T00:16:53;101817.59;;;6.37;100.00
9764;BME280;4921;43.214;27.936;2023-01-15T00:19:22;101814.72;;;6.43;100.00
9764;BME280;4921;43.214;27.936;2023-01-15T00:21:48;101819.94;;;6.63;100.00
9764;BME280;4921;43.214;27.936;2023-01-15T00:24:17;101810.66;;;6.56;100.00
9764;BME280;4921;43.214;27.936;2023-01-15T00:27:01;101809.09;;;6.52;100.00
9764;BME280;4921;43.214;27.936;2023-01-15T00:29:46;101816.47;;;6.63;100.00
9764;BME280;4921;43.214;27.936;2023-01-15T00:32:13;101794.00;;;6.59;100.00
9764;BME280;4921;43.214;27.936;2023-01-15T00:34:41;101813.38;;;6.73;100.00
9764;BME280;4921;43.214;27.936;2023-01-15T00:37:09;101805.38;;;6.58;100.00
9764;BME280;4921;43.214;27.936;2023-01-15T00:39:35;101807.28;;;6.54;100.00
9764;BME280;4921;43.214;27.936;2023-01-15T00:42:02;101816.09;;;6.52;100.00
9764;BME280;4921;43.214;27.936;2023-01-15T00:44:30;101801.53;;;6.46;100.00
9764;BME280;4921;43.214;27.936;2023-01-15T00:46:57;101810.28;;;6.65;100.00
9764;BME280;4921;43.214;27.936;2023-01-15T00:49:24;101803.50;;;6.80;100.00
9764;BME280;4921;43.214;27.936;2023-01-15T00:51:53;101811.94;;;6.66;100.00
9764;BME280;4921;43.214;27.936;2023-01-15T00:54:20;101813.53;;;6.70;100.00
9764;BME280;4921;43.214;27.936;2023-01-15T00:56:48;101825.19;;;6.63;100.00
9764;BME280;4921;43.214;27.936;2023-01-15T00:59:15;101816.28;;;6.67;100.00
9764;BME280;4921;43.214;27.936;2023-01-15T01:01:42;101814.13;;;6.77;100.00
9764;BME280;4921;43.214;27.936;2023-01-15T01:04:08;101813.34;;;6.75;100.00
9764;BME280;4921;43.214;27.936;2023-01-15T01:06:36;101807.53;;;6.87;100.00
9764;BME280;4921;43.214;27.936;2023-01-15T01:09:04;101809.78;;;6.94;100.00
9764;BME280;4921;43.214;27.936;2023-01-15T01:11:31;101811.91;;;6.86;100.00
9764;BME280;4921;43.214;27.936;2023-01-15T01:13:59;101792.75;;;6.67;100.00
9764;BME280;4921;43.214;27.936;2023-01-15T01:16:28;101808.19;;;6.92;100.00
9764;BME280;4921;43.214;27.936;2023-01-15T01:18:59;101793.25;;;6.75;100.00
9764;BME280;4921;43.214;27.936;2023-01-15T01:21:28;101796.81;;;6.74;100.00
9764;BME280;4921;43.214;27.936;2023-01-15T01:23:57;101799.47;;;6.73;100.00
9764;BME280;4921;43.214;27.936;2023-01-15T01:26:25;101798.56;;;6.74;100.00
9764;BME280;4921;43.214;27.936;2023-01-15T01:28:53;101800.97;;;6.78;100.00
9764;BME280;4921;43.214;27.936;2023-01-15T01:31:20;101789.44;;;6.64;100.00
9764;BME280;4921;43.214;27.936;2023-01-15T01:33:48;101799.69;;;6.68;100.00
9764;BME280;4921;43.214;27.936;2023-01-15T01:36:15;101802.44;;;6.84;100.00
9764;BME280;4921;43.214;27.936;2023-01-15T01:38:42;101806.28;;;6.77;100.00
9764;BME280;4921;43.214;27.936;2023-01-15T01:41:09;101799.25;;;6.77;100.00
9764;BME280;4921;43.214;27.936;2023-01-15T01:43:53;101804.91;;;6.68;100.00
9764;BME280;4921;43.214;27.936;2023-01-15T01:46:21;101800.59;;;6.67;100.00
9764;BME280;4921;43.214;27.936;2023-01-15T01:48:50;101794.50;;;6.67;100.00
9764;BME280;4921;43.214;27.936;2023-01-15T01:51:19;101801.72;;;6.62;100.00
9764;BME280;4921;43.214;27.936;2023-01-15T01:53:48;101806.41;;;6.74;100.00
9764;BME280;4921;43.214;27.936;2023-01-15T01:56:15;101801.03;;;6.77;100.00
9764;BME280;4921;43.214;27.936;2023-01-15T01:58:44;101797.53;;;6.58;100.00
9764;BME280;4921;43.214;27.936;2023-01-15T02:01:13;101795.47;;;6.46;100.00
9764;BME280;4921;43.214;27.936;2023-01-15T02:03:40;101800.03;;;6.41;100.00
9764;BME280;4921;43.214;27.936;2023-01-15T02:06:08;101798.16;;;6.44;100.00
9764;BME280;4921;43.214;27.936;2023-01-15T02:08:35;101800.03;;;6.41;100.00
9764;BME280;4921;43.214;27.936;2023-01-15T02:11:05;101804.16;;;6.46;100.00
9764;BME280;4921;43.214;27.936;2023-01-15T02:13:35;101802.72;;;6.39;100.00
9764;BME280;4921;43.214;27.936;2023-01-15T02:16:07;101800.03;;;6.41;100.00
9764;BME280;4921;43.214;27.936;2023-01-15T02:18:42;101795.94;;;6.35;100.00
9764;BME280;4921;43.214;27.936;2023-01-15T02:21:20;101796.25;;;6.28;100.00
9764;BME280;4921;43.214;27.936;2023-01-15T02:24:02;101792.47;;;6.35;100.00
9764;BME280;4921;43.214;27.936;2023-01-15T02:26:56;101793.19;;;6.38;100.00
9764;BME280;4921;43.214;27.936;2023-01-15T02:29:30;101802.22;;;6.31;100.00
9764;BME280;4921;43.214;27.936;2023-01-15T02:32:04;101799.09;;;6.23;100.00
9764;BME280;4921;43.214;27.936;2023-01-15T02:34:36;101800.66;;;6.27;100.00
9764;BME280;4921;43.214;27.936;2023-01-15T02:37:09;101793.72;;;6.26;100.00
9764;BME280;4921;43.214;27.936;2023-01-15T02:39:41;101795.53;;;6.24;100.00
9764;BME280;4921;43.214;27.936;2023-01-15T02:42:11;101788.06;;;6.17;100.00
9764;BME280;4921;43.214;27.936;2023-01-15T02:44:41;101780.22;;;6.17;100.00
9764;BME280;4921;43.214;27.936;2023-01-15T02:47:12;101780.56;;;6.28;100.00
9764;BME280;4921;43.214;27.936;2023-01-15T02:49:40;101787.63;;;6.26;100.00
9764;BME280;4921;43.214;27.936;2023-01-15T02:52:13;101793.13;;;6.20;100.00
9764;BME280;4921;43.214;27.936;2023-01-15T02:54:46;101793.97;;;6.20;100.00
9764;BME280;4921;43.214;27.936;2023-01-15T02:57:16;101795.34;;;6.29;100.00
9764;BME280;4921;43.214;27.936;2023-01-15T02:59:46;101792.25;;;6.19;100.00
9764;BME280;4921;43.214;27.936;2023-01-15T03:02:18;101792.34;;;6.18;100.00
9764;BME280;4921;43.214;27.936;2023-01-15T03:04:50;101789.59;;;6.21;100.00
9764;BME280;4921;43.214;27.936;2023-01-15T03:07:22;101787.19;;;6.16;100.00
9764;BME280;4921;43.214;27.936;2023-01-15T03:09:51;101785.75;;;6.09;100.00
9764;BME280;4921;43.214;27.936;2023-01-15T03:12:25;101775.56;;;6.03;100.00
9764;BME280;4921;43.214;27.936;2023-01-15T03:15:02;101783.31;;;6.04;100.00
9764;BME280;4921;43.214;27.936;2023-01-15T03:17:35;101782.22;;;6.10;100.00
9764;BME280;4921;43.214;27.936;2023-01-15T03:20:06;101776.00;;;6.12;100.00
9764;BME280;4921;43.214;27.936;2023-01-15T03:22:37;101771.59;;;6.14;100.00
9764;BME280;4921;43.214;27.936;2023-01-15T03:25:07;101774.44;;;6.08;100.00
9764;BME280;4921;43.214;27.936;2023-01-15T03:27:37;101780.34;;;6.13;100.00
9764;BME280;4921;43.214;27.936;2023-01-15T03:30:12;101779.44;;;6.14;100.00
9764;BME280;4921;43.214;27.936;2023-01-15T03:32:40;101779.94;;;6.02;100.00
9764;BME280;4921;43.214;27.936;2023-01-15T03:37:50;101782.03;;;6.14;100.00
9764;BME280;4921;43.214;27.936;2023-01-15T03:40:17;101787.13;;;6.18;100.00
9764;BME280;4921;43.214;27.936;2023-01-15T03:42:49;101783.47;;;6.22;100.00
9764;BME280;4921;43.214;27.936;2023-01-15T03:45:41;101789.16;;;6.31;100.00
9764;BME280;4921;43.214;27.936;2023-01-15T03:48:15;101792.22;;;6.21;100.00
9764;BME280;4921;43.214;27.936;2023-01-15T03:50:47;101784.22;;;6.24;100.00
9764;BME280;4921;43.214;27.936;2023-01-15T03:53:19;101783.31;;;6.04;100.00
9764;BME280;4921;43.214;27.936;2023-01-15T03:55:52;101787.13;;;6.18;100.00
9764;BME280;4921;43.214;27.936;2023-01-15T03:58:25;101794.94;;;6.18;100.00
9764;BME280;4921;43.214;27.936;2023-01-15T04:00:55;101785.13;;;6.43;100.00
9764;BME280;4921;43.214;27.936;2023-01-15T04:03:25;101786.13;;;6.40;100.00
9764;BME280;4921;43.214;27.936;2023-01-15T04:05:55;101791.09;;;6.46;100.00
9764;BME280;4921;43.214;27.936;2023-01-15T04:08:23;101799.56;;;6.51;100.00
9764;BME280;4921;43.214;27.936;2023-01-15T04:10:53;101808.47;;;6.27;100.00
9764;BME280;4921;43.214;27.936;2023-01-15T04:13:23;101797.75;;;6.13;100.00
9764;BME280;4921;43.214;27.936;2023-01-15T04:15:51;101805.78;;;6.29;100.00
9764;BME280;4921;43.214;27.936;2023-01-15T04:18:18;101805.91;;;6.26;100.00
9764;BME280;4921;43.214;27.936;2023-01-15T04:20:46;101805.59;;;6.33;100.00
9764;BME280;4921;43.214;27.936;2023-01-15T04:23:14;101802.31;;;6.28;100.00
9764;BME280;4921;43.214;27.936;2023-01-15T04:25:41;101800.84;;;6.23;100.00
9764;BME280;4921;43.214;27.936;2023-01-15T04:28:08;101806.66;;;6.29;100.00
9764;BME280;4921;43.214;27.936;2023-01-15T04:30:37;101808.03;;;6.38;100.00
9764;BME280;4921;43.214;27.936;2023-01-15T04:33:04;101808.22;;;6.33;100.00
9764;BME280;4921;43.214;27.936;2023-01-15T04:35:31;101793.19;;;6.38;100.00
9764;BME280;4921;43.214;27.936;2023-01-15T04:37:59;101792.53;;;6.33;100.00
9764;BME280;4921;43.214;27.936;2023-01-15T04:40:26;101792.16;;;6.42;100.00
9764;BME280;4921;43.214;27.936;2023-01-15T04:43:11;101798.16;;;6.24;100.00
9764;BME280;4921;43.214;27.936;2023-01-15T04:45:58;101783.53;;;6.20;100.00
9764;BME280;4921;43.214;27.936;2023-01-15T04:48:25;101793.03;;;6.21;100.00
9764;BME280;4921;43.214;27.936;2023-01-15T04:50:53;101800.56;;;6.08;100.00
9764;BME280;4921;43.214;27.936;2023-01-15T04:53:20;101799.13;;;6.01;100.00
9764;BME280;4921;43.214;27.936;2023-01-15T04:55:47;101803.56;;;5.99;100.00
9764;BME280;4921;43.214;27.936;2023-01-15T04:58:14;101802.84;;;5.96;100.00
9764;BME280;4921;43.214;27.936;2023-01-15T05:00:41;101808.13;;;5.94;100.00
9764;BME280;4921;43.214;27.936;2023-01-15T05:03:09;101808.38;;;5.88;100.00
9764;BME280;4921;43.214;27.936;2023-01-15T05:05:36;101818.97;;;6.05;100.00
9764;BME280;4921;43.214;27.936;2023-01-15T05:08:03;101813.09;;;6.00;100.00
9764;BME280;4921;43.214;27.936;2023-01-15T05:10:30;101827.59;;;6.07;100.00
9764;BME280;4921;43.214;27.936;2023-01-15T05:12:58;101824.31;;;6.02;100.00
9764;BME280;4921;43.214;27.936;2023-01-15T05:15:25;101821.41;;;6.10;100.00
9764;BME280;4921;43.214;27.936;2023-01-15T05:17:52;101831.78;;;6.11;100.00
9764;BME280;4921;43.214;27.936;2023-01-15T05:20:20;101836.28;;;6.08;100.00
9764;BME280;4921;43.214;27.936;2023-01-15T05:22:47;101836.81;;;6.16;100.00
9764;BME280;4921;43.214;27.936;2023-01-15T05:25:14;101837.63;;;5.96;100.00
9764;BME280;4921;43.214;27.936;2023-01-15T05:27:41;101841.22;;;5.94;100.00
9764;BME280;4921;43.214;27.936;2023-01-15T05:30:09;101840.53;;;5.89;100.00
9764;BME280;4921;43.214;27.936;2023-01-15T05:32:37;101843.28;;;5.86;100.00
9764;BME280;4921;43.214;27.936;2023-01-15T05:35:04;101842.66;;;5.79;100.00
9764;BME280;4921;43.214;27.936;2023-01-15T05:37:33;101842.13;;;5.71;100.00
9764;BME280;4921;43.214;27.936;2023-01-15T05:40:00;101849.09;;;5.71;100.00
9764;BME280;4921;43.214;27.936;2023-01-15T05:42:27;101845.63;;;5.70;100.00
9764;BME280;4921;43.214;27.936;2023-01-15T05:44:54;101845.00;;;5.64;100.00
9764;BME280;4921;43.214;27.936;2023-01-15T05:47:21;101833.78;;;5.62;100.00
9764;BME280;4921;43.214;27.936;2023-01-15T05:49:48;101844.13;;;5.65;100.00
9764;BME280;4921;43.214;27.936;2023-01-15T05:52:15;101840.66;;;5.64;100.00
9764;BME280;4921;43.214;27.936;2023-01-15T05:54:43;101841.69;;;5.60;100.00
9764;BME280;4921;43.214;27.936;2023-01-15T05:57:11;101848.56;;;5.63;100.00
9764;BME280;4921;43.214;27.936;2023-01-15T05:59:38;101847.00;;;5.57;100.00
9764;BME280;4921;43.214;27.936;2023-01-15T06:02:05;101841.25;;;5.49;100.00
9764;BME280;4921;43.214;27.936;2023-01-15T06:04:32;101840.75;;;5.61;100.00
9764;BME280;4921;43.214;27.936;2023-01-15T06:06:59;101843.63;;;5.55;100.00
9764;BME280;4921;43.214;27.936;2023-01-15T06:09:26;101847.00;;;5.57;100.00
9764;BME280;4921;43.214;27.936;2023-01-15T06:11:55;101849.94;;;5.50;100.00
9764;BME280;4921;43.214;27.936;2023-01-15T06:14:22;101850.59;;;5.55;100.00
9764;BME280;4921;43.214;27.936;2023-01-15T06:16:49;101832.09;;;5.39;100.00
9764;BME280;4921;43.214;27.936;2023-01-15T06:19:16;101855.44;;;5.64;100.00
9764;BME280;4921;43.214;27.936;2023-01-15T06:21:43;101855.19;;;5.48;100.00
9764;BME280;4921;43.214;27.936;2023-01-15T06:24:11;101846.91;;;6.03;100.00
9764;BME280;4921;43.214;27.936;2023-01-15T06:26:41;101851.44;;;6.20;100.00
9764;BME280;4921;43.214;27.936;2023-01-15T06:29:09;101844.50;;;6.19;100.00
9764;BME280;4921;43.214;27.936;2023-01-15T06:31:36;101848.16;;;6.15;100.00
9764;BME280;4921;43.214;27.936;2023-01-15T06:34:03;101835.72;;;6.00;100.00
9764;BME280;4921;43.214;27.936;2023-01-15T06:36:30;101849.75;;;5.97;100.00
9764;BME280;4921;43.214;27.936;2023-01-15T06:38:57;101844.34;;;6.02;100.00
9764;BME280;4921;43.214;27.936;2023-01-15T06:41:25;101843.03;;;5.92;100.00
9764;BME280;4921;43.214;27.936;2023-01-15T06:44:13;101846.25;;;5.98;100.00
9764;BME280;4921;43.214;27.936;2023-01-15T06:47:11;101839.38;;;5.96;100.00
9764;BME280;4921;43.214;27.936;2023-01-15T06:49:49;101845.38;;;5.76;100.00
9764;BME280;4921;43.214;27.936;2023-01-15T06:52:16;101836.91;;;5.71;100.00
9764;BME280;4921;43.214;27.936;2023-01-15T06:54:43;101843.81;;;5.72;100.00
9764;BME280;4921;43.214;27.936;2023-01-15T06:57:10;101842.91;;;5.73;100.00
9764;BME280;4921;43.214;27.936;2023-01-15T06:59:39;101846.16;;;6.00;100.00
9764;BME280;4921;43.214;27.936;2023-01-15T07:02:06;101846.13;;;6.01;100.00
9764;BME280;4921;43.214;27.936;2023-01-15T07:04:33;101849.19;;;6.11;100.00
9764;BME280;4921;43.214;27.936;2023-01-15T07:07:00;101843.69;;;6.19;100.00
9764;BME280;4921;43.214;27.936;2023-01-15T07:09:27;101840.22;;;6.38;100.00
9764;BME280;4921;43.214;27.936;2023-01-15T07:11:54;101853.53;;;6.52;100.00
9764;BME280;4921;43.214;27.936;2023-01-15T07:14:22;101851.97;;;6.48;100.00
9764;BME280;4921;43.214;27.936;2023-01-15T07:16:51;101853.06;;;6.63;100.00
9764;BME280;4921;43.214;27.936;2023-01-15T07:19:18;101852.78;;;6.69;100.00
9764;BME280;4921;43.214;27.936;2023-01-15T07:21:46;101852.66;;;6.72;100.00
9764;BME280;4921;43.214;27.936;2023-01-15T07:24:13;101850.72;;;6.77;100.00
9764;BME280;4921;43.214;27.936;2023-01-15T07:26:41;101847.88;;;6.81;100.00
9764;BME280;4921;43.214;27.936;2023-01-15T07:29:10;101840.75;;;6.85;100.00
9764;BME280;4921;43.214;27.936;2023-01-15T07:31:37;101846.19;;;6.99;100.00
9764;BME280;4921;43.214;27.936;2023-01-15T07:34:06;101848.34;;;7.10;100.00
9764;BME280;4921;43.214;27.936;2023-01-15T07:36:33;101848.97;;;7.15;100.00
9764;BME280;4921;43.214;27.936;2023-01-15T07:39:02;101836.97;;;7.11;100.00
9764;BME280;4921;43.214;27.936;2023-01-15T07:41:29;101842.13;;;7.12;100.00
9764;BME280;4921;43.214;27.936;2023-01-15T07:44:14;101835.97;;;7.13;100.00
9764;BME280;4921;43.214;27.936;2023-01-15T07:46:58;101840.81;;;7.22;100.00
9764;BME280;4921;43.214;27.936;2023-01-15T07:49:44;101837.59;;;7.34;100.00
9764;BME280;4921;43.214;27.936;2023-01-15T07:52:13;101842.47;;;7.23;100.00
9764;BME280;4921;43.214;27.936;2023-01-15T07:54:40;101845.75;;;7.28;100.00
9764;BME280;4921;43.214;27.936;2023-01-15T07:57:07;101860.72;;;7.25;100.00
9764;BME280;4921;43.214;27.936;2023-01-15T07:59:34;101839.56;;;7.29;100.00
9764;BME280;4921;43.214;27.936;2023-01-15T08:02:02;101849.81;;;7.34;100.00
9764;BME280;4921;43.214;27.936;2023-01-15T08:04:29;101839.94;;;7.40;100.00
9764;BME280;4921;43.214;27.936;2023-01-15T08:06:59;101842.88;;;7.51;100.00
9764;BME280;4921;43.214;27.936;2023-01-15T08:09:26;101838.22;;;7.58;100.00
9764;BME280;4921;43.214;27.936;2023-01-15T08:11:54;101843.38;;;7.59;100.00
9764;BME280;4921;43.214;27.936;2023-01-15T08:14:39;101842.53;;;7.59;100.00
9764;BME280;4921;43.214;27.936;2023-01-15T08:17:23;101840.00;;;7.75;100.00
9764;BME280;4921;43.214;27.936;2023-01-15T08:19:50;101836.63;;;7.72;100.00
9764;BME280;4921;43.214;27.936;2023-01-15T08:22:18;101845.16;;;7.59;100.00
9764;BME280;4921;43.214;27.936;2023-01-15T08:24:46;101841.91;;;7.54;100.00
9764;BME280;4921;43.214;27.936;2023-01-15T08:27:13;101837.00;;;7.46;100.00
9764;BME280;4921;43.214;27.936;2023-01-15T08:29:40;101841.81;;;7.55;100.00
9764;BME280;4921;43.214;27.936;2023-01-15T08:32:07;101840.88;;;7.75;100.00
9764;BME280;4921;43.214;27.936;2023-01-15T08:34:34;101831.81;;;7.82;100.00
9764;BME280;4921;43.214;27.936;2023-01-15T08:37:02;101841.84;;;7.91;100.00
9764;BME280;4921;43.214;27.936;2023-01-15T08:39:30;101840.59;;;7.98;100.00
9764;BME280;4921;43.214;27.936;2023-01-15T08:41:58;101840.22;;;8.06;100.00
9764;BME280;4921;43.214;27.936;2023-01-15T08:44:25;101835.66;;;8.09;100.00
9764;BME280;4921;43.214;27.936;2023-01-15T08:46:52;101825.19;;;8.09;100.00
9764;BME280;4921;43.214;27.936;2023-01-15T08:49:19;101826.97;;;8.09;100.00
9764;BME280;4921;43.214;27.936;2023-01-15T08:51:47;101825.72;;;8.16;100.00
9764;BME280;4921;43.214;27.936;2023-01-15T08:54:22;101832.28;;;8.24;100.00
9764;BME280;4921;43.214;27.936;2023-01-15T08:56:52;101832.47;;;8.38;100.00
9764;BME280;4921;43.214;27.936;2023-01-15T08:59:22;101820.53;;;8.33;100.00
9764;BME280;4921;43.214;27.936;2023-01-15T09:01:59;101828.00;;;8.40;100.00
9764;BME280;4921;43.214;27.936;2023-01-15T09:04:31;101815.66;;;8.42;100.00
9764;BME280;4921;43.214;27.936;2023-01-15T09:06:58;101816.34;;;8.46;100.00
9764;BME280;4921;43.214;27.936;2023-01-15T09:09:28;101817.66;;;8.55;100.00
9764;BME280;4921;43.214;27.936;2023-01-15T09:11:56;101811.00;;;8.48;100.00
9764;BME280;4921;43.214;27.936;2023-01-15T09:14:23;101810.00;;;8.50;100.00
9764;BME280;4921;43.214;27.936;2023-01-15T09:16:50;101806.78;;;8.62;100.00
9764;BME280;4921;43.214;27.936;2023-01-15T09:19:17;101811.06;;;8.63;100.00
9764;BME280;4921;43.214;27.936;2023-01-15T09:21:44;101803.22;;;8.63;100.00
9764;BME280;4921;43.214;27.936;2023-01-15T09:24:11;101801.63;;;8.76;100.00
9764;BME280;4921;43.214;27.936;2023-01-15T09:26:38;101792.66;;;8.80;100.00
9764;BME280;4921;43.214;27.936;2023-01-15T09:29:07;101793.66;;;8.62;100.00
9764;BME280;4921;43.214;27.936;2023-01-15T09:31:34;101790.88;;;8.65;100.00
9764;BME280;4921;43.214;27.936;2023-01-15T09:34:01;101793.34;;;8.68;100.00
9764;BME280;4921;43.214;27.936;2023-01-15T09:36:29;101779.84;;;8.59;100.00
9764;BME280;4921;43.214;27.936;2023-01-15T09:38:58;101785.81;;;8.78;100.00
9764;BME280;4921;43.214;27.936;2023-01-15T09:41:31;101789.47;;;8.75;100.00
9764;BME280;4921;43.214;27.936;2023-01-15T09:44:28;101786.84;;;8.75;100.00
9764;BME280;4921;43.214;27.936;2023-01-15T09:47:07;101785.22;;;8.73;100.00
9764;BME280;4921;43.214;27.936;2023-01-15T09:49:48;101784.19;;;8.60;100.00
9764;BME280;4921;43.214;27.936;2023-01-15T09:52:24;101781.19;;;8.50;100.00
9764;BME280;4921;43.214;27.936;2023-01-15T09:54:58;101782.66;;;8.56;100.00
9764;BME280;4921;43.214;27.936;2023-01-15T09:57:29;101778.00;;;8.61;100.00
9764;BME280;4921;43.214;27.936;2023-01-15T09:59:58;101768.25;;;8.63;100.00
9764;BME280;4921;43.214;27.936;2023-01-15T10:02:32;101769.13;;;8.63;100.00
9764;BME280;4921;43.214;27.936;2023-01-15T10:05:07;101764.13;;;8.59;100.00
9764;BME280;4921;43.214;27.936;2023-01-15T10:07:39;101764.16;;;8.74;100.00
9764;BME280;4921;43.214;27.936;2023-01-15T10:10:10;101757.16;;;8.75;100.00
9764;BME280;4921;43.214;27.936;2023-01-15T10:12:38;101757.28;;;8.72;100.00
9764;BME280;4921;43.214;27.936;2023-01-15T10:15:30;101750.94;;;8.76;100.00
9764;BME280;4921;43.214;27.936;2023-01-15T10:18:01;101754.56;;;8.58;100.00
9764;BME280;4921;43.214;27.936;2023-01-15T10:20:39;101747.13;;;8.66;100.00
9764;BME280;4921;43.214;27.936;2023-01-15T10:23:20;101738.34;;;8.82;100.00
9764;BME280;4921;43.214;27.936;2023-01-15T10:25:57;101735.34;;;8.90;100.00
9764;BME280;4921;43.214;27.936;2023-01-15T10:28:30;101728.56;;;8.86;100.00
9764;BME280;4921;43.214;27.936;2023-01-15T10:31:04;101727.09;;;8.80;100.00
9764;BME280;4921;43.214;27.936;2023-01-15T10:33:44;101725.19;;;8.84;100.00
9764;BME280;4921;43.214;27.936;2023-01-15T10:36:21;101725.19;;;8.35;100.00
9764;BME280;4921;43.214;27.936;2023-01-15T10:38:57;101705.41;;;8.13;100.00
9764;BME280;4921;43.214;27.936;2023-01-15T10:41:51;101713.41;;;8.27;100.00
9764;BME280;4921;43.214;27.936;2023-01-15T10:44:29;101713.34;;;8.44;100.00
9764;BME280;4921;43.214;27.936;2023-01-15T10:47:02;101706.53;;;8.57;100.00
9764;BME280;4921;43.214;27.936;2023-01-15T10:49:30;101708.06;;;8.11;100.00
9764;BME280;4921;43.214;27.936;2023-01-15T10:52:02;101693.75;;;8.18;100.00
9764;BME280;4921;43.214;27.936;2023-01-15T10:54:35;101683.16;;;8.37;100.00
9764;BME280;4921;43.214;27.936;2023-01-15T10:57:07;101688.16;;;8.41;100.00
9764;BME280;4921;43.214;27.936;2023-01-15T10:59:40;101688.59;;;8.50;100.00
9764;BME280;4921;43.214;27.936;2023-01-15T11:02:22;101673.53;;;8.37;100.00
9764;BME280;4921;43.214;27.936;2023-01-15T11:04:50;101686.38;;;8.42;100.00
9764;BME280;4921;43.214;27.936;2023-01-15T11:07:19;101691.09;;;8.35;100.00
9764;BME280;4921;43.214;27.936;2023-01-15T11:09:47;101688.25;;;8.40;100.00
9764;BME280;4921;43.214;27.936;2023-01-15T11:12:23;101685.97;;;8.17;100.00
9764;BME280;4921;43.214;27.936;2023-01-15T11:15:14;101687.00;;;7.97;100.00
9764;BME280;4921;43.214;27.936;2023-01-15T11:18:01;101689.19;;;7.89;100.00
9764;BME280;4921;43.214;27.936;2023-01-15T11:20:46;101679.81;;;8.01;100.00
9764;BME280;4921;43.214;27.936;2023-01-15T11:23:16;101676.81;;;8.08;100.00
9764;BME280;4921;43.214;27.936;2023-01-15T11:25:49;101681.03;;;8.11;100.00
9764;BME280;4921;43.214;27.936;2023-01-15T11:28:17;101675.72;;;8.12;100.00
9764;BME280;4921;43.214;27.936;2023-01-15T11:30:52;101680.50;;;8.21;100.00
9764;BME280;4921;43.214;27.936;2023-01-15T11:33:24;101670.31;;;8.15;100.00
9764;BME280;4921;43.214;27.936;2023-01-15T11:35:53;101662.09;;;8.06;100.00
9764;BME280;4921;43.214;27.936;2023-01-15T11:38:24;101657.19;;;8.00;100.00
9764;BME280;4921;43.214;27.936;2023-01-15T11:40:52;101663.38;;;8.14;100.00
9764;BME280;4921;43.214;27.936;2023-01-15T11:43:20;101669.91;;;8.23;100.00
9764;BME280;4921;43.214;27.936;2023-01-15T11:46:05;101656.59;;;8.27;100.00
9764;BME280;4921;43.214;27.936;2023-01-15T11:48:50;101660.06;;;8.11;100.00
9764;BME280;4921;43.214;27.936;2023-01-15T11:51:39;101651.44;;;8.09;100.00
9764;BME280;4921;43.214;27.936;2023-01-15T11:54:10;101644.66;;;7.89;100.00
9764;BME280;4921;43.214;27.936;2023-01-15T11:56:41;101656.34;;;7.99;100.00
9764;BME280;4921;43.214;27.936;2023-01-15T11:59:11;101653.81;;;7.81;100.00
9764;BME280;4921;43.214;27.936;2023-01-15T12:01:47;101663.06;;;7.70;100.00
9764;BME280;4921;43.214;27.936;2023-01-15T12:04:28;101651.66;;;7.89;100.00
9764;BME280;4921;43.214;27.936;2023-01-15T12:06:57;101632.50;;;7.71;100.00
9764;BME280;4921;43.214;27.936;2023-01-15T12:09:33;101649.06;;;7.72;100.00
9764;BME280;4921;43.214;27.936;2023-01-15T12:12:10;101648.97;;;7.73;100.00
9764;BME280;4921;43.214;27.936;2023-01-15T12:14:51;101645.41;;;7.91;100.00
9764;BME280;4921;43.214;27.936;2023-01-15T12:17:31;101636.72;;;7.91;100.00
9764;BME280;4921;43.214;27.936;2023-01-15T12:20:13;101628.03;;;7.73;100.00
9764;BME280;4921;43.214;27.936;2023-01-15T12:22:53;101627.56;;;7.82;100.00
9764;BME280;4921;43.214;27.936;2023-01-15T12:25:36;101636.19;;;7.84;100.00
9764;BME280;4921;43.214;27.936;2023-01-15T12:28:12;101631.84;;;7.83;100.00
9764;BME280;4921;43.214;27.936;2023-01-15T12:30:44;101642.72;;;7.93;100.00
9764;BME280;4921;43.214;27.936;2023-01-15T12:33:27;101638.03;;;7.82;100.00
9764;BME280;4921;43.214;27.936;2023-01-15T12:36:01;101630.78;;;7.87;100.00
9764;BME280;4921;43.214;27.936;2023-01-15T12:38:43;101630.66;;;7.73;100.00
9764;BME280;4921;43.214;27.936;2023-01-15T12:41:13;101635.59;;;7.62;100.00
9764;BME280;4921;43.214;27.936;2023-01-15T12:43:45;101635.97;;;7.72;100.00
9764;BME280;4921;43.214;27.936;2023-01-15T12:46:33;101640.44;;;7.69;100.00
9764;BME280;4921;43.214;27.936;2023-01-15T12:49:07;101627.41;;;7.68;100.00
9764;BME280;4921;43.214;27.936;2023-01-15T12:51:44;101613.00;;;7.77;100.00
9764;BME280;4921;43.214;27.936;2023-01-15T12:54:15;101634.72;;;7.79;100.00
9764;BME280;4921;43.214;27.936;2023-01-15T12:56:50;101636.88;;;7.70;100.00
9764;BME280;4921;43.214;27.936;2023-01-15T12:59:25;101635.81;;;7.57;100.00
9764;BME280;4921;43.214;27.936;2023-01-15T13:02:01;101615.44;;;7.47;100.00
9764;BME280;4921;43.214;27.936;2023-01-15T13:04:41;101632.50;;;7.71;100.00
9764;BME280;4921;43.214;27.936;2023-01-15T13:07:18;101631.41;;;7.75;100.00
9764;BME280;4921;43.214;27.936;2023-01-15T13:09:52;101631.50;;;7.74;100.00
9764;BME280;4921;43.214;27.936;2023-01-15T13:12:22;101624.25;;;7.79;100.00
9764;BME280;4921;43.214;27.936;2023-01-15T13:14:50;101616.56;;;7.76;100.00
9764;BME280;4921;43.214;27.936;2023-01-15T13:17:23;101615.47;;;7.80;100.00
9764;BME280;4921;43.214;27.936;2023-01-15T13:20:02;101618.22;;;7.77;100.00
9764;BME280;4921;43.214;27.936;2023-01-15T13:22:43;101616.00;;;7.86;100.00
9764;BME280;4921;43.214;27.936;2023-01-15T13:25:24;101612.09;;;7.78;100.00